Time;durP1;ratioP1;P1;durP2;ratioP2;P2;SDS_P1;SDS_P2;PMS_P1;PMS_P2;Temp;Humidity;BMP_temperature;BMP_pressure;BME280_temperature;BME280_humidity;BME280_pressure;Samples;Min_cycle;Max_cycle;Signal;HPM_P1;HPM_P2
2022/06/06 18:57:32;;;;;;;2.67;2.47;;;;;;;19.30;66.17;94353.88;2200385;54;71039;-78
2022/06/06 19:00:12;;;;;;;4.63;3.28;;;;;;;18.95;68.13;94344.72;2618852;39;20531;-78
2022/06/06 19:02:46;;;;;;;3.63;3.30;;;;;;;20.18;69.38;94542.31;2618447;39;20200;-78
2022/06/06 19:05:38;;;;;;;3.53;3.10;;;;;;;20.16;68.89;94466.84;2617856;47;20138;-79
2022/06/06 19:08:22;;;;;;;3.10;2.80;;;;;;;20.12;68.69;94453.22;2618121;47;20194;-80
2022/06/06 19:11:23;;;;;;;2.83;1.75;;;;;;;20.78;68.70;94516.69;2618098;54;20145;-79
2022/06/06 19:14:02;;;;;;;4.72;2.63;;;;;;;21.34;66.10;94549.31;2618740;54;20988;-78
2022/06/06 19:16:34;;;;;;;6.50;4.20;;;;;;;20.99;66.62;94572.66;2618408;54;20137;-78
2022/06/06 19:19:04;;;;;;;4.32;3.97;;;;;;;20.92;68.36;94589.25;2614322;54;20145;-78
2022/06/06 19:21:37;;;;;;;2.45;2.25;;;;;;;20.82;69.11;94585.75;2618403;47;20174;-79
2022/06/06 19:24:09;;;;;;;4.72;3.92;;;;;;;20.82;70.00;94580.72;2618147;54;20140;-80
2022/06/06 19:26:47;;;;;;;4.03;3.00;;;;;;;20.61;70.07;94576.56;2617968;54;20380;-80
2022/06/06 19:29:26;;;;;;;2.97;2.77;;;;;;;20.25;71.31;94577.47;2618557;54;20388;-79
2022/06/06 19:32:01;;;;;;;5.70;2.78;;;;;;;19.96;72.06;94562.53;2611487;47;20160;-77
2022/06/06 19:34:34;;;;;;;2.20;2.10;;;;;;;19.85;72.66;94561.88;2617764;54;20195;-80
2022/06/06 19:37:22;;;;;;;3.13;2.83;;;;;;;19.68;73.68;94585.69;2616953;47;20665;-79
2022/06/06 19:40:03;;;;;;;2.45;2.33;;;;;;;19.54;73.11;94566.34;2617957;54;20145;-81
2022/06/06 19:42:38;;;;;;;6.97;2.85;;;;;;;19.95;72.67;94561.13;2617206;54;20220;-78
2022/06/06 19:45:17;;;;;;;4.50;3.42;;;;;;;19.97;73.77;94580.50;2617163;54;20683;-78
2022/06/06 19:47:51;;;;;;;3.25;2.95;;;;;;;19.51;74.76;94562.75;2617504;50;20159;-77
2022/06/06 19:50:29;;;;;;;3.78;3.47;;;;;;;19.49;75.22;94585.00;2617482;47;20251;-83
2022/06/06 19:53:00;;;;;;;3.03;2.83;;;;;;;19.73;74.85;94593.53;2617134;54;20168;-76
2022/06/06 19:55:32;;;;;;;2.80;2.42;;;;;;;19.22;75.12;94572.13;2617449;54;20161;-78
2022/06/06 19:58:04;;;;;;;2.83;2.63;;;;;;;18.73;76.08;94554.94;2615113;54;20798;-77
2022/06/06 20:00:36;;;;;;;3.17;2.87;;;;;;;18.91;77.72;94580.78;2618372;47;20205;-78
2022/06/06 20:03:09;;;;;;;5.10;3.63;;;;;;;18.90;77.42;94533.41;2617515;47;20173;-79
2022/06/06 20:05:40;;;;;;;3.00;2.80;;;;;;;19.53;76.47;94590.75;2616313;54;20180;-81
2022/06/06 20:08:19;;;;;;;2.70;2.45;;;;;;;19.67;75.49;94596.44;2616404;47;20153;-83
2022/06/06 20:10:51;;;;;;;6.00;3.17;;;;;;;19.35;75.12;94562.03;2617547;47;20171;-79
2022/06/06 20:13:33;;;;;;;3.57;2.73;;;;;;;18.98;75.38;94561.41;2616620;39;20556;-81
2022/06/06 20:16:30;;;;;;;4.13;3.73;;;;;;;18.93;76.72;94592.25;2613005;47;20149;-77
2022/06/06 20:19:04;;;;;;;3.15;2.92;;;;;;;18.37;77.10;94558.50;2616499;47;20154;-79
2022/06/06 20:21:35;;;;;;;3.07;2.77;;;;;;;18.59;78.16;94598.69;2616266;48;20153;-81
2022/06/06 20:24:24;;;;;;;3.17;2.87;;;;;;;18.56;77.37;94548.47;2617187;31;20623;-83
2022/06/06 20:26:56;;;;;;;3.47;3.07;;;;;;;18.93;76.25;94608.75;2616053;47;20181;-84
2022/06/06 20:29:44;;;;;;;2.60;2.40;;;;;;;19.01;75.84;94600.13;2614121;47;20224;-84
2022/06/06 20:32:34;;;;;;;3.13;2.90;;;;;;;18.78;75.63;94600.13;2615208;47;20153;-78
2022/06/06 20:35:13;;;;;;;5.60;2.70;;;;;;;19.10;75.81;94602.28;2617727;54;20145;-81
2022/06/06 20:38:02;;;;;;;3.45;3.15;;;;;;;19.41;73.95;94545.50;2618133;39;20556;-79
2022/06/06 20:40:39;;;;;;;3.17;2.95;;;;;;;19.55;74.23;94596.47;2617261;47;20133;-81
2022/06/06 20:43:18;;;;;;;3.47;3.00;;;;;;;20.08;72.13;94533.75;2616355;54;20212;-77
2022/06/06 20:45:50;;;;;;;4.95;2.95;;;;;;;20.89;70.06;94593.63;2615509;31;20632;-76
2022/06/06 20:48:26;;;;;;;4.80;3.92;;;;;;;20.73;68.92;94558.50;2616469;47;20256;-77
2022/06/06 20:51:00;;;;;;;3.28;2.85;;;;;;;21.17;68.67;94607.06;2616599;54;20664;-80
2022/06/06 20:53:34;;;;;;;2.85;2.65;;;;;;;21.30;68.35;94606.97;2616889;47;20164;-78
2022/06/06 20:56:06;;;;;;;2.95;2.50;;;;;;;21.27;69.03;94609.88;2616885;54;20153;-79
2022/06/06 20:58:36;;;;;;;3.00;2.80;;;;;;;21.42;68.30;94589.56;2617016;54;21358;-81
2022/06/06 21:01:06;;;;;;;3.08;2.78;;;;;;;21.21;67.94;94580.41;2617589;54;20153;-81
2022/06/06 21:03:41;;;;;;;6.43;2.65;;;;;;;21.03;67.94;94540.25;2617942;54;20200;-83
2022/06/06 21:06:16;;;;;;;3.33;2.40;;;;;;;21.56;66.92;94589.41;2617549;47;20140;-82
2022/06/06 21:09:01;;;;;;;3.78;2.17;;;;;;;21.50;67.01;94570.03;2618120;54;20144;-81
2022/06/06 21:11:36;;;;;;;3.47;2.63;;;;;;;20.89;65.89;94500.78;2617664;47;20206;-81
